Observations for LONDON HEATHROW, United Kingdom (EGLL)

EGLL 242020Z AUTO 22014KT 9999 -RA BKN015 13/11 Q1008 TEMPO RA BKN014   
EGLL 241950Z AUTO 23014KT 9999 -RA BKN015 BKN020 13/10 Q1008 NOSIG  
EGLL 241920Z AUTO 22014KT 9999 BKN015 BKN021 13/11 Q1009 NOSIG  
EGLL 241850Z AUTO 22015KT 9999 BKN013 BKN024 13/11 Q1009 NOSIG  
EGLL 241820Z AUTO 23016KT 9999 BKN013 14/11 Q1009 NOSIG 
EGLL 241750Z AUTO 22016KT 9999 BKN013 14/11 Q1009 NOSIG 
EGLL 241720Z AUTO 22015G26KT 9999 BKN013 14/11 Q1010 NOSIG  
EGLL 241650Z AUTO 22016KT 9999 -RA OVC013 14/11 Q1010 NOSIG 
EGLL 241620Z AUTO 23016KT 9999 OVC013 14/11 Q1011 NOSIG 
EGLL 241550Z AUTO 22012KT 9999 BKN013 OVC018 14/11 Q1011 NOSIG  
EGLL 241520Z AUTO 21015KT 9999 BKN014 OVC019 14/11 Q1011 NOSIG  
EGLL 241450Z AUTO 23016KT 9999 BKN017 OVC031 15/11 Q1012 NOSIG  
EGLL 241420Z AUTO 22015KT 9999 BKN025 OVC032 16/10 Q1012 NOSIG  
EGLL 241350Z AUTO 21016KT 9999 OVC036 16/06 Q1012 NOSIG 
EGLL 241320Z AUTO 23014G25KT 190V250 9999 BKN043 16/04 Q1013 NOSIG  
EGLL 241250Z AUTO 21012KT 180V250 9999 NCD 17/09 Q1013 NOSIG
EGLL 241220Z AUTO 23011KT 9999 NCD 16/08 Q1014 NOSIG
EGLL 241150Z AUTO 21010KT 170V240 9999 NCD 15/08 Q1015 NOSIG
EGLL 241120Z AUTO 22009KT 160V260 9999 NCD 15/08 Q1015 NOSIG
EGLL 241050Z AUTO 23007KT 190V260 9999 NCD 14/08 Q1015 NOSIG
EGLL 241020Z AUTO 24007KT 170V280 9999 NCD 14/08 Q1016 NOSIG
EGLL 240950Z AUTO 23008KT 190V270 9999 NCD 13/08 Q1016 NOSIG
EGLL 240920Z AUTO 25008KT 9999 NCD 13/08 Q1016 NOSIG
EGLL 240850Z AUTO 27011KT 9999 NCD 13/09 Q1016 NOSIG
EGLL 240820Z AUTO 26013KT 9999 NCD 13/09 Q1016 NOSIG
EGLL 240750Z AUTO 24011KT 9999 SCT019 13/09 Q1016 NOSIG 
EGLL 240720Z AUTO 26012KT 9999 FEW018 12/09 Q1016 NOSIG 
EGLL 240650Z AUTO 26010KT 9999 NCD 12/09 Q1016 NOSIG
EGLL 240620Z AUTO 25010KT 9999 NCD 12/09 Q1015 NOSIG
EGLL 240550Z AUTO 23009KT 9999 NCD 12/09 Q1015 NOSIG
EGLL 240520Z AUTO 24008KT 9999 NCD 11/09 Q1015 NOSIG
EGLL 240450Z AUTO 25008KT 9999 SCT024 11/09 Q1015 NOSIG 
EGLL 240420Z AUTO 24007KT 9999 BKN024 11/09 Q1015 NOSIG 
EGLL 240350Z AUTO 24009KT 9999 SCT023 11/09 Q1015 NOSIG 
EGLL 240320Z AUTO 24009KT 9999 NCD 11/09 Q1015 NOSIG
EGLL 240250Z AUTO 24010KT 9999 SCT025 12/09 Q1015 TEMPO BKN012  
EGLL 240220Z AUTO 24011KT 9999 BKN021 12/09 Q1015 TEMPO BKN012  
EGLL 240150Z AUTO 24010KT 9999 BKN017 BKN021 12/09 Q1015 TEMPO BKN012   
EGLL 240120Z AUTO 24010KT 210V270 9999 OVC017 12/09 Q1015 TEMPO BKN012  
EGLL 240050Z AUTO 23011KT 9999 OVC017 12/08 Q1015 TEMPO BKN012  
EGLL 240020Z AUTO 22011KT 9999 BKN019 12/08 Q1015 TEMPO BKN012  
EGLL 232350Z AUTO 22012KT 9999 OVC020 12/08 Q1015 TEMPO BKN012  
EGLL 232320Z AUTO 23010KT 9999 OVC023 12/08 Q1015 NOSIG 
EGLL 232250Z AUTO 23010KT 9999 BKN027 12/08 Q1016 NOSIG 
EGLL 232220Z AUTO 23010KT 9999 BKN029 12/07 Q1016 NOSIG 
EGLL 232150Z AUTO 24011KT 9999 NCD 12/07 Q1016 NOSIG
EGLL 232120Z AUTO 23012KT 9999 NCD 12/07 Q1016 NOSIG
EGLL 232050Z AUTO 23008KT 9999 NCD 12/07 Q1016 NOSIG
EGLL 232020Z AUTO 24012KT 9999 NCD 13/07 Q1016 NOSIG
EGLL 231950Z AUTO 24012KT 9999 NCD 13/08 Q1016 NOSIG